TAF GCLA
GCLA 080200Z 0803/0903 33008KT 9999 BKN030 TX21/0813Z TN19/0806Z=
METAR GCLA
GCLA 080300Z AUTO 33010KT 300V010 9999 BKN024 OVC033 18/15 Q1025=
GCLA 080230Z AUTO 33011KT 290V010 9999 SCT027 BKN033 BKN039 18/15 Q1025=
GCLA 080200Z AUTO 32008KT 290V010 9999 BKN026 OVC033 18/15 Q1025=
GCLA 080130Z AUTO 33009KT 300V030 9999 OVC024 18/16 Q1025=
GCLA 080100Z AUTO 33007KT 290V010 9999 BKN023 OVC029 18/16 Q1025=
WC GCLA
WS GCLA
WV GCLA